Time;durP1;ratioP1;P1;durP2;ratioP2;P2;SDS_P1;SDS_P2;PMS_P1;PMS_P2;Temp;Humidity;BMP_temperature;BMP_pressure;BME280_temperature;BME280_humidity;BME280_pressure;Samples;Min_cycle;Max_cycle;Signal;HPM_P1;HPM_P2
2022/05/19 00:02:09;;;;;;;4.10;1.55;;;;;;;19.74;51.50;102277.03;143726;601;46008;-62
2022/05/19 00:04:36;;;;;;;6.90;1.70;;;;;;;19.74;51.23;102274.31;143724;579;47006;-62
2022/05/19 00:07:03;;;;;;;7.20;1.80;;;;;;;19.84;51.64;102284.72;143726;579;46024;-63
2022/05/19 00:09:30;;;;;;;4.37;2.30;;;;;;;19.86;51.78;102288.03;143725;577;46012;-63
2022/05/19 00:11:58;;;;;;;6.60;1.10;;;;;;;19.88;51.30;102306.94;143726;602;46008;-62
2022/05/19 00:14:25;;;;;;;11.32;2.12;;;;;;;19.84;51.52;102303.78;143727;620;47002;-64
2022/05/19 00:16:56;;;;;;;6.78;1.67;;;;;;;19.74;50.94;102297.97;143726;746;46921;-62
2022/05/19 00:19:23;;;;;;;4.15;1.30;;;;;;;19.62;50.74;102286.94;143723;590;47006;-62
2022/05/19 00:21:50;;;;;;;5.87;2.40;;;;;;;19.53;51.38;102294.56;143726;581;46008;-62
2022/05/19 00:24:16;;;;;;;6.30;1.90;;;;;;;19.42;50.47;102306.19;143729;581;47004;-62
2022/05/19 00:26:43;;;;;;;6.18;1.58;;;;;;;19.48;50.67;102319.75;143726;602;46010;-62
2022/05/19 00:29:10;;;;;;;7.57;1.60;;;;;;;19.49;50.11;102329.59;143723;584;48006;-62
2022/05/19 00:31:36;;;;;;;6.25;1.73;;;;;;;19.56;50.77;102334.19;143728;603;46008;-64
2022/05/19 00:34:03;;;;;;;6.75;1.90;;;;;;;19.64;48.84;102339.34;143728;597;47002;-61
2022/05/19 00:36:37;;;;;;;4.90;1.52;;;;;;;19.73;49.22;102357.12;143728;600;46031;-62
2022/05/19 00:39:13;;;;;;;7.80;2.03;;;;;;;19.78;50.14;102356.47;143725;945;47004;-62
2022/05/19 00:41:46;;;;;;;8.45;1.67;;;;;;;19.88;51.32;102358.75;143726;627;46924;-62
2022/05/19 00:44:13;;;;;;;3.65;1.65;;;;;;;19.78;49.75;102361.91;143726;740;47003;-63
2022/05/19 00:47:00;;;;;;;6.82;1.77;;;;;;;19.36;49.83;102379.56;143726;567;46012;-62
2022/05/19 00:49:32;;;;;;;4.65;1.73;;;;;;;19.57;49.81;102380.28;143727;580;46957;-62
2022/05/19 00:52:11;;;;;;;2.67;1.15;;;;;;;19.74;49.98;102386.06;143729;648;46008;-61
2022/05/19 00:54:46;;;;;;;4.32;2.22;;;;;;;19.76;48.98;102394.88;143725;588;47004;-61
2022/05/19 00:57:23;;;;;;;4.10;1.80;;;;;;;19.80;50.55;102397.97;143726;570;46012;-62
2022/05/19 01:00:00;;;;;;;6.00;1.87;;;;;;;19.75;50.21;102385.03;143725;578;47006;-63
2022/05/19 01:02:33;;;;;;;4.90;1.77;;;;;;;19.77;49.97;102391.06;143725;594;47002;-62
2022/05/19 01:05:18;;;;;;;6.45;2.33;;;;;;;19.81;50.69;102389.56;143726;594;47006;-61
2022/05/19 01:08:12;;;;;;;8.05;2.03;;;;;;;19.83;51.23;102403.81;143727;572;47010;-62
2022/05/19 01:10:40;;;;;;;7.03;2.00;;;;;;;19.82;51.91;102401.34;143724;592;47006;-63
2022/05/19 01:13:07;;;;;;;10.65;1.60;;;;;;;19.84;50.75;102391.03;143726;679;46009;-61
2022/05/19 01:15:36;;;;;;;8.38;2.25;;;;;;;19.74;50.83;102393.41;143725;691;47004;-61
2022/05/19 01:18:03;;;;;;;8.27;2.00;;;;;;;19.71;51.95;102394.69;143728;586;46010;-61
2022/05/19 01:20:30;;;;;;;8.20;1.83;;;;;;;19.70;51.04;102396.56;143725;610;47007;-63
2022/05/19 01:23:45;;;;;;;3.95;1.75;;;;;;;19.74;50.79;102407.03;143727;586;46008;-61
2022/05/19 01:26:38;;;;;;;7.47;1.95;;;;;;;19.77;50.32;102418.31;143725;590;47006;-63
2022/05/19 01:29:04;;;;;;;7.03;2.33;;;;;;;19.76;50.87;102410.38;143726;609;46012;-61
2022/05/19 01:31:37;;;;;;;9.82;2.25;;;;;;;19.74;49.42;102407.03;143724;579;47006;-61
2022/05/19 01:34:06;;;;;;;4.93;1.35;;;;;;;19.74;50.84;102410.59;143728;955;47008;-61
2022/05/19 01:36:33;;;;;;;5.15;1.90;;;;;;;19.75;50.72;102415.00;143725;605;47004;-61
2022/05/19 01:39:05;;;;;;;6.95;1.60;;;;;;;19.70;49.77;102420.28;143729;603;46012;-61
2022/05/19 01:41:59;;;;;;;5.45;1.60;;;;;;;19.72;49.28;102409.13;143725;586;47006;-61
2022/05/19 01:45:13;;;;;;;7.80;1.62;;;;;;;19.81;48.41;102413.28;143725;596;46009;-61
2022/05/19 01:47:53;;;;;;;4.15;1.50;;;;;;;19.84;48.08;102427.31;143727;592;47006;-64
2022/05/19 01:51:00;;;;;;;5.10;1.37;;;;;;;19.77;49.73;102437.41;143726;567;46922;-62
2022/05/19 01:53:42;;;;;;;5.37;1.62;;;;;;;19.74;47.30;102434.28;143724;597;47004;-62
2022/05/19 01:56:26;;;;;;;5.78;1.70;;;;;;;19.75;47.51;102430.50;143727;577;46008;-62
2022/05/19 01:59:40;;;;;;;8.95;2.12;;;;;;;19.75;46.92;102444.16;143727;589;47004;-62
2022/05/19 02:02:23;;;;;;;4.55;1.70;;;;;;;19.76;47.87;102446.66;143725;569;47012;-62
2022/05/19 02:05:06;;;;;;;5.00;1.65;;;;;;;19.78;47.08;102447.25;143725;720;47007;-61
2022/05/19 02:07:36;;;;;;;4.45;1.37;;;;;;;19.77;46.25;102451.03;143726;580;47008;-62
2022/05/19 02:10:20;;;;;;;4.78;1.80;;;;;;;19.74;45.97;102443.31;143725;590;47004;-62
2022/05/19 02:12:48;;;;;;;3.80;1.90;;;;;;;19.77;45.75;102455.66;143726;582;46012;-62
2022/05/19 02:15:18;;;;;;;3.78;1.40;;;;;;;19.81;46.78;102451.47;143727;577;47004;-62
2022/05/19 02:17:47;;;;;;;4.72;1.62;;;;;;;19.79;46.32;102443.47;143728;586;46008;-62
2022/05/19 02:20:16;;;;;;;5.35;1.58;;;;;;;19.77;46.92;102444.75;143726;592;47004;-61
2022/05/19 02:22:44;;;;;;;8.43;2.10;;;;;;;19.77;46.73;102442.84;143725;603;46013;-63
2022/05/19 02:25:25;;;;;;;3.87;1.58;;;;;;;19.80;47.59;102455.25;143725;774;47006;-63
2022/05/19 02:28:14;;;;;;;6.45;1.95;;;;;;;19.82;46.59;102453.97;143725;584;47009;-61
2022/05/19 02:30:42;;;;;;;7.68;1.87;;;;;;;19.84;47.60;102457.31;143725;582;47006;-61
2022/05/19 02:33:11;;;;;;;5.07;1.62;;;;;;;19.81;48.53;102465.09;143725;575;46012;-62
2022/05/19 02:35:38;;;;;;;4.87;2.42;;;;;;;19.72;48.47;102475.41;143723;591;47006;-61
2022/05/19 02:38:05;;;;;;;9.70;2.30;;;;;;;19.73;47.52;102473.50;143727;630;46008;-62
2022/05/19 02:40:35;;;;;;;9.00;2.00;;;;;;;19.78;45.77;102463.63;143727;582;47004;-62
2022/05/19 02:43:02;;;;;;;7.68;2.30;;;;;;;19.72;46.31;102463.66;143726;618;46011;-61
2022/05/19 02:45:29;;;;;;;7.55;2.60;;;;;;;19.69;47.51;102454.03;143724;653;47006;-61
2022/05/19 02:47:56;;;;;;;13.45;2.40;;;;;;;19.65;46.47;102461.81;143729;582;47008;-62
2022/05/19 02:50:22;;;;;;;7.60;2.42;;;;;;;19.66;43.91;102460.75;143727;639;47006;-62
2022/05/19 02:52:49;;;;;;;6.95;2.47;;;;;;;19.76;43.57;102470.34;143727;584;46012;-62
2022/05/19 02:55:17;;;;;;;5.82;1.60;;;;;;;19.82;44.12;102475.78;143724;576;47006;-63
2022/05/19 02:57:44;;;;;;;9.13;2.30;;;;;;;19.82;45.33;102473.03;143727;584;46008;-62
2022/05/19 03:00:15;;;;;;;4.40;1.85;;;;;;;19.83;44.50;102477.44;143727;590;47004;-61
2022/05/19 03:02:43;;;;;;;6.22;2.03;;;;;;;19.79;45.45;102489.81;143724;594;47012;-61
2022/05/19 03:05:13;;;;;;;6.62;1.55;;;;;;;19.73;46.38;102489.88;143725;729;47007;-61
2022/05/19 03:07:39;;;;;;;3.97;1.60;;;;;;;19.76;45.02;102498.47;143727;575;46008;-62
2022/05/19 03:10:06;;;;;;;10.23;1.90;;;;;;;19.81;44.35;102495.91;143726;603;47004;-62
2022/05/19 03:12:33;;;;;;;7.95;2.40;;;;;;;19.79;45.73;102489.81;143727;750;46012;-61
2022/05/19 03:14:59;;;;;;;4.15;1.80;;;;;;;19.73;46.26;102496.16;143726;588;47004;-62
2022/05/19 03:17:26;;;;;;;6.28;1.80;;;;;;;19.74;47.15;102499.72;143727;627;46008;-61
2022/05/19 03:19:54;;;;;;;7.68;1.83;;;;;;;19.76;47.68;102505.78;143725;573;47004;-61
2022/05/19 03:22:21;;;;;;;3.70;1.65;;;;;;;19.64;47.53;102505.63;143728;729;46027;-62
2022/05/19 03:24:48;;;;;;;4.53;1.50;;;;;;;19.53;47.56;102516.16;143725;592;47004;-63
2022/05/19 03:27:14;;;;;;;6.53;1.70;;;;;;;19.61;45.41;102512.38;143728;573;46009;-62
2022/05/19 03:29:41;;;;;;;6.80;1.50;;;;;;;19.53;46.23;102507.13;143725;790;47004;-63
2022/05/19 03:32:08;;;;;;;5.87;1.50;;;;;;;19.49;46.78;102512.19;143724;578;47012;-62
2022/05/19 03:34:34;;;;;;;6.32;1.55;;;;;;;19.51;46.93;102512.81;143723;647;47006;-62
2022/05/19 03:37:04;;;;;;;3.97;1.20;;;;;;;19.46;46.75;102511.78;143725;634;46010;-63
2022/05/19 03:39:30;;;;;;;4.37;1.30;;;;;;;19.36;47.66;102513.06;143726;724;47008;-62
2022/05/19 03:41:57;;;;;;;3.72;1.20;;;;;;;19.36;47.41;102517.69;143725;887;47012;-62
2022/05/19 03:44:23;;;;;;;8.82;2.08;;;;;;;19.25;47.46;102513.72;143725;573;47006;-62
2022/05/19 03:46:49;;;;;;;5.32;2.03;;;;;;;19.27;46.59;102513.50;143727;806;46008;-63
2022/05/19 03:49:16;;;;;;;4.15;1.50;;;;;;;19.28;46.93;102509.72;143727;567;47006;-62
2022/05/19 03:51:43;;;;;;;7.85;1.40;;;;;;;19.29;46.65;102511.41;143726;576;47011;-63
2022/05/19 03:54:10;;;;;;;4.90;1.30;;;;;;;19.25;46.26;102521.91;143725;576;47004;-62
2022/05/19 03:56:36;;;;;;;3.33;1.00;;;;;;;19.21;45.65;102521.50;143728;588;46007;-64
2022/05/19 03:59:04;;;;;;;5.30;1.27;;;;;;;19.28;45.14;102524.19;143727;736;47004;-62
2022/05/19 04:01:30;;;;;;;7.15;1.40;;;;;;;19.39;44.38;102530.88;143725;567;47010;-62
2022/05/19 04:03:57;;;;;;;4.40;1.33;;;;;;;19.48;44.80;102535.03;143725;647;47004;-62
2022/05/19 04:06:23;;;;;;;6.20;1.62;;;;;;;19.50;44.69;102535.66;143726;581;46006;-62
2022/05/19 04:08:50;;;;;;;3.70;1.20;;;;;;;19.50;42.01;102541.13;143726;598;47004;-64
2022/05/19 04:11:16;;;;;;;6.07;1.20;;;;;;;19.52;43.44;102544.47;143727;567;47010;-64
2022/05/19 04:13:42;;;;;;;4.72;1.37;;;;;;;19.52;44.34;102546.34;143728;977;46012;-62
2022/05/19 04:16:09;;;;;;;4.55;1.50;;;;;;;19.52;44.47;102549.91;143734;925;46006;-63
2022/05/19 04:18:37;;;;;;;7.85;1.73;;;;;;;19.51;43.74;102553.69;143734;972;47002;-62
2022/05/19 04:21:04;;;;;;;4.95;2.08;;;;;;;19.59;44.62;102551.78;143732;568;47011;-62
2022/05/19 04:23:31;;;;;;;5.87;1.50;;;;;;;19.57;44.55;102556.63;143736;586;47002;-62
2022/05/19 04:25:58;;;;;;;5.18;1.30;;;;;;;19.55;46.04;102548.63;143733;589;46006;-62
2022/05/19 04:28:24;;;;;;;8.23;1.40;;;;;;;19.51;45.61;102556.41;143733;678;47002;-63
2022/05/19 04:30:51;;;;;;;8.88;1.48;;;;;;;19.49;44.83;102553.06;143730;595;48013;-63
2022/05/19 04:33:17;;;;;;;14.10;1.70;;;;;;;19.50;44.40;102560.19;143731;790;47004;-63
2022/05/19 04:35:44;;;;;;;10.70;1.60;;;;;;;19.48;43.93;102556.84;143733;692;46019;-63
2022/05/19 04:38:14;;;;;;;8.13;1.58;;;;;;;19.55;44.52;102567.72;143734;582;47004;-63
2022/05/19 04:40:42;;;;;;;6.10;2.08;;;;;;;19.63;45.30;102556.59;143732;736;47010;-63
2022/05/19 04:43:10;;;;;;;8.20;1.30;;;;;;;19.63;44.83;102558.47;143732;596;47004;-65
2022/05/19 04:45:36;;;;;;;6.62;2.35;;;;;;;19.59;44.23;102562.69;143734;600;46022;-63
2022/05/19 04:48:03;;;;;;;7.60;1.48;;;;;;;19.61;44.54;102558.69;143733;701;47002;-64
2022/05/19 04:50:30;;;;;;;8.82;1.75;;;;;;;19.65;45.65;102557.22;143736;823;46010;-63
2022/05/19 04:52:59;;;;;;;11.18;2.00;;;;;;;19.69;44.30;102565.81;143733;632;47004;-63
2022/05/19 04:55:26;;;;;;;6.50;1.62;;;;;;;19.73;44.42;102571.66;143733;679;47006;-63
2022/05/19 04:57:52;;;;;;;6.78;1.52;;;;;;;19.67;45.19;102562.44;143732;589;47002;-63
2022/05/19 05:00:20;;;;;;;7.50;1.58;;;;;;;19.66;44.68;102568.94;143732;590;47010;-62
2022/05/19 05:02:47;;;;;;;6.97;1.80;;;;;;;19.69;43.78;102572.06;143730;842;47012;-63
2022/05/19 05:05:13;;;;;;;12.98;1.83;;;;;;;19.70;44.95;102567.47;143732;580;48002;-62
2022/05/19 05:07:40;;;;;;;9.20;2.33;;;;;;;19.72;45.51;102562.66;143734;780;47004;-62
2022/05/19 05:10:07;;;;;;;7.37;1.73;;;;;;;19.77;44.66;102568.28;143731;576;46922;-62
2022/05/19 05:12:33;;;;;;;6.78;1.62;;;;;;;19.81;43.93;102566.78;143732;758;46009;-62
2022/05/19 05:15:00;;;;;;;9.07;1.83;;;;;;;19.81;43.58;102572.25;143727;687;46006;-62
2022/05/19 05:17:26;;;;;;;5.43;1.60;;;;;;;19.85;43.18;102573.50;143726;973;47000;-62
2022/05/19 05:19:52;;;;;;;5.40;1.50;;;;;;;19.86;43.18;102577.06;143723;569;47010;-63
2022/05/19 05:22:19;;;;;;;5.03;1.10;;;;;;;19.87;42.93;102576.03;143723;618;47004;-63
2022/05/19 05:24:45;;;;;;;6.70;1.05;;;;;;;19.92;42.73;102576.22;143723;757;46006;-64
2022/05/19 05:27:11;;;;;;;8.85;1.60;;;;;;;20.03;42.70;102572.00;143726;597;47002;-62
2022/05/19 05:29:38;;;;;;;4.87;1.10;;;;;;;20.13;37.92;102579.72;143724;596;46010;-62
2022/05/19 05:32:05;;;;;;;6.43;2.17;;;;;;;20.19;37.93;102569.81;143726;635;46008;-63
2022/05/19 05:34:31;;;;;;;7.03;1.27;;;;;;;20.22;38.14;102575.66;143725;604;47007;-62
2022/05/19 05:36:57;;;;;;;3.08;0.90;;;;;;;20.29;37.53;102581.09;143724;575;47002;-62
2022/05/19 05:39:24;;;;;;;5.05;1.45;;;;;;;20.24;37.40;102580.91;143723;956;47008;-62
2022/05/19 05:41:50;;;;;;;3.62;0.88;;;;;;;20.25;36.75;102571.69;143724;604;46008;-63
2022/05/19 05:44:16;;;;;;;4.03;0.80;;;;;;;20.36;36.95;102583.78;143723;679;47006;-62
2022/05/19 05:46:44;;;;;;;2.80;0.80;;;;;;;20.37;37.80;102586.28;143724;893;47002;-62
2022/05/19 05:49:11;;;;;;;9.65;1.20;;;;;;;20.49;37.97;102585.59;143724;575;46010;-63
2022/05/19 05:51:38;;;;;;;4.28;0.80;;;;;;;20.57;35.69;102583.44;143722;770;47004;-64
2022/05/19 05:54:05;;;;;;;3.60;1.27;;;;;;;20.59;34.71;102584.06;143726;572;46006;-63
2022/05/19 05:56:32;;;;;;;2.67;0.80;;;;;;;20.51;35.08;102589.78;143723;601;47002;-63
2022/05/19 05:58:58;;;;;;;3.62;1.02;;;;;;;20.60;35.91;102590.38;143724;567;47010;-63
2022/05/19 06:01:25;;;;;;;5.22;1.12;;;;;;;20.70;36.48;102598.88;143722;707;47004;-63
2022/05/19 06:03:51;;;;;;;4.03;0.88;;;;;;;20.78;35.76;102594.25;143726;573;46007;-63
2022/05/19 06:06:18;;;;;;;5.28;1.17;;;;;;;20.82;36.54;102595.50;143724;582;47002;-62
2022/05/19 06:08:44;;;;;;;4.07;1.35;;;;;;;20.83;39.32;102597.13;143722;585;47010;-64
2022/05/19 06:11:13;;;;;;;5.80;1.42;;;;;;;20.86;41.45;102613.94;143724;599;47004;-65
2022/05/19 06:13:40;;;;;;;4.97;1.70;;;;;;;20.88;41.98;102603.63;143725;598;46006;-63
2022/05/19 06:16:06;;;;;;;5.82;1.65;;;;;;;20.85;43.58;102600.50;143724;583;47004;-63
2022/05/19 06:18:32;;;;;;;4.75;1.58;;;;;;;20.82;43.81;102590.84;143724;628;46010;-63
2022/05/19 06:20:59;;;;;;;7.40;3.08;;;;;;;20.80;43.82;102608.53;143721;586;47004;-65
2022/05/19 06:23:25;;;;;;;5.78;2.20;;;;;;;20.79;43.43;102612.31;143725;952;46006;-62
2022/05/19 06:25:52;;;;;;;6.85;1.75;;;;;;;20.80;43.90;102606.63;143725;580;47004;-63
2022/05/19 06:28:18;;;;;;;7.15;1.92;;;;;;;20.89;44.81;102599.84;143726;568;46021;-63
2022/05/19 06:30:45;;;;;;;7.72;2.08;;;;;;;21.04;44.85;102601.41;143723;635;47004;-64
2022/05/19 06:33:12;;;;;;;5.35;1.70;;;;;;;21.17;44.23;102598.56;143725;673;46006;-63
2022/05/19 06:35:41;;;;;;;4.37;1.83;;;;;;;21.27;43.39;102597.22;143724;569;47004;-62
2022/05/19 06:44:12;;;;;;;8.52;1.70;;;;;;;21.15;42.32;102597.13;143725;728;46006;-63
2022/05/19 06:46:38;;;;;;;7.55;1.87;;;;;;;21.11;42.33;102601.34;143725;582;47006;-63
2022/05/19 06:49:05;;;;;;;4.90;1.58;;;;;;;21.10;42.43;102597.75;143723;629;47010;-63
2022/05/19 06:51:32;;;;;;;6.97;1.50;;;;;;;21.15;40.94;102597.94;143723;585;47004;-62
2022/05/19 06:53:59;;;;;;;5.22;1.67;;;;;;;21.26;41.51;102604.56;143725;585;47006;-62
2022/05/19 06:56:26;;;;;;;7.00;1.98;;;;;;;21.42;40.83;102610.50;143725;567;47003;-62
2022/05/19 06:58:52;;;;;;;6.60;1.62;;;;;;;21.57;39.80;102605.50;143724;590;46010;-62
2022/05/19 07:01:18;;;;;;;2.65;1.58;;;;;;;21.67;39.10;102604.19;143722;583;47004;-64
2022/05/19 07:03:45;;;;;;;6.07;1.52;;;;;;;21.61;39.07;102604.03;143724;579;46924;-62
2022/05/19 07:06:11;;;;;;;8.65;1.67;;;;;;;21.69;38.59;102613.00;143724;708;47002;-63
2022/05/19 07:08:38;;;;;;;3.62;1.42;;;;;;;21.81;39.32;102614.75;143724;585;47010;-62
2022/05/19 07:11:05;;;;;;;7.03;1.52;;;;;;;21.90;38.86;102612.53;143722;590;47004;-63
2022/05/19 07:13:32;;;;;;;4.95;1.40;;;;;;;22.00;37.89;102612.00;143725;595;46006;-62
2022/05/19 07:15:59;;;;;;;4.15;1.10;;;;;;;22.04;37.10;102609.66;143724;592;47002;-62
2022/05/19 07:18:26;;;;;;;5.97;1.00;;;;;;;21.94;37.21;102612.94;143723;591;47010;-62
2022/05/19 07:20:52;;;;;;;4.10;1.60;;;;;;;21.93;37.60;102609.34;143723;599;47004;-62
2022/05/19 07:23:27;;;;;;;6.05;1.52;;;;;;;21.92;36.74;102613.16;143724;648;47006;-62
2022/05/19 07:25:54;;;;;;;2.95;1.10;;;;;;;21.93;34.62;102614.00;143725;638;47002;-62
2022/05/19 07:28:21;;;;;;;3.83;1.67;;;;;;;22.05;34.56;102605.84;143724;567;47010;-62
2022/05/19 07:30:49;;;;;;;7.57;1.40;;;;;;;22.14;34.23;102609.13;143723;692;47004;-63
2022/05/19 07:33:15;;;;;;;4.20;1.23;;;;;;;22.16;34.00;102605.06;143726;597;46007;-62
2022/05/19 07:35:46;;;;;;;4.50;1.17;;;;;;;22.15;32.29;102610.78;143725;576;47002;-64
2022/05/19 07:38:16;;;;;;;6.37;1.20;;;;;;;22.20;31.70;102606.28;143725;741;46010;-62
2022/05/19 07:40:43;;;;;;;4.18;1.02;;;;;;;22.36;30.63;102603.97;143721;716;47004;-62
2022/05/19 07:45:54;;;;;;;3.85;1.00;;;;;;;22.52;29.85;102616.19;143726;776;47002;-62
2022/05/19 07:48:21;;;;;;;6.70;0.98;;;;;;;22.43;30.25;102609.37;143722;598;47010;-62
2022/05/19 07:50:47;;;;;;;3.78;1.02;;;;;;;22.36;29.89;102613.00;143722;582;47004;-62
2022/05/19 07:53:14;;;;;;;3.90;1.20;;;;;;;22.35;29.95;102614.06;143726;572;46006;-62
2022/05/19 07:55:40;;;;;;;4.53;1.12;;;;;;;22.38;29.86;102610.88;143723;580;47004;-62
2022/05/19 07:58:07;;;;;;;2.58;0.70;;;;;;;22.51;29.33;102614.50;143723;686;47008;-62
2022/05/19 08:00:33;;;;;;;5.00;1.12;;;;;;;22.69;28.68;102608.16;143722;570;47004;-61
2022/05/19 08:03:00;;;;;;;4.12;1.10;;;;;;;22.83;26.93;102617.81;143726;631;46007;-62
2022/05/19 08:05:26;;;;;;;1.77;0.77;;;;;;;22.91;25.86;102602.94;143725;686;47000;-62
2022/05/19 08:07:52;;;;;;;7.87;1.25;;;;;;;22.99;27.00;102607.25;143724;608;47010;-63
2022/05/19 08:10:25;;;;;;;3.15;1.00;;;;;;;22.87;26.21;102615.44;143722;594;47004;-63
2022/05/19 08:15:40;;;;;;;1.90;1.10;;;;;;;22.82;26.24;102612.59;143754;569;46004;-63
2022/05/19 08:18:17;;;;;;;4.25;0.75;;;;;;;22.28;26.66;102610.59;143753;569;45010;-61
2022/05/19 08:20:48;;;;;;;5.57;1.45;;;;;;;22.20;26.19;102605.44;143750;625;46004;-61
2022/05/19 08:23:18;;;;;;;5.93;1.27;;;;;;;22.55;27.38;102604.75;143750;584;46000;-63
2022/05/19 08:25:45;;;;;;;4.07;1.35;;;;;;;22.80;27.60;102601.84;143753;581;46002;-62
2022/05/19 08:28:14;;;;;;;2.22;1.27;;;;;;;22.87;26.38;102593.50;143751;597;46010;-61
2022/05/19 08:30:43;;;;;;;1.50;0.80;;;;;;;22.75;25.89;102600.88;143751;634;46004;-62
2022/05/19 08:33:09;;;;;;;5.60;1.25;;;;;;;22.93;27.42;102597.25;143753;589;45007;-62
2022/05/19 08:35:36;;;;;;;2.55;0.90;;;;;;;23.00;28.25;102597.94;143755;579;46002;-62
2022/05/19 08:38:02;;;;;;;3.72;1.25;;;;;;;23.14;28.17;102596.63;143754;614;45922;-62
2022/05/19 08:40:30;;;;;;;5.65;0.80;;;;;;;23.24;27.97;102601.56;143749;588;46004;-63
2022/05/19 08:43:00;;;;;;;2.95;0.90;;;;;;;23.34;27.64;102602.87;143753;601;45924;-61
2022/05/19 08:45:39;;;;;;;3.00;0.90;;;;;;;23.47;26.98;102597.97;143754;590;46002;-63
2022/05/19 08:48:11;;;;;;;2.03;1.58;;;;;;;23.57;27.70;102599.28;143753;588;45922;-61
2022/05/19 08:51:10;;;;;;;5.30;0.98;;;;;;;23.60;24.72;102599.63;143749;598;46004;-61
2022/05/19 08:53:41;;;;;;;5.28;0.88;;;;;;;23.59;23.93;102606.19;143751;620;46006;-63
2022/05/19 08:56:42;;;;;;;4.72;1.00;;;;;;;23.42;25.90;102594.28;143754;606;46002;-61
2022/05/19 08:59:47;;;;;;;4.68;0.85;;;;;;;23.55;26.22;102596.78;143749;717;48922;-62
2022/05/19 09:02:20;;;;;;;;;;;;;;;23.79;25.72;102599.47;143757;978;46004;-62
2022/05/19 09:05:12;;;;;;;2.83;1.00;;;;;;;23.87;26.03;102595.50;143759;597;45008;-62
2022/05/19 09:08:01;;;;;;;4.37;0.95;;;;;;;24.02;26.50;102598.59;143755;577;46004;-62
2022/05/19 09:10:43;;;;;;;3.30;1.33;;;;;;;24.06;26.68;102591.56;143750;613;46009;-62
2022/05/19 09:13:31;;;;;;;2.47;1.10;;;;;;;24.15;25.49;102591.19;143748;743;46931;-62
2022/05/19 09:16:02;;;;;;;2.22;0.80;;;;;;;24.19;25.78;102592.31;143726;630;46006;-62
2022/05/19 09:18:41;;;;;;;3.05;0.75;;;;;;;23.91;22.83;102588.47;143724;579;47007;-64
2022/05/19 09:21:08;;;;;;;3.62;1.00;;;;;;;23.87;23.69;102582.66;143722;619;47012;-62
2022/05/19 09:23:36;;;;;;;2.55;1.55;;;;;;;23.96;24.50;102580.34;143722;603;47006;-62
2022/05/19 09:26:26;;;;;;;2.85;1.10;;;;;;;24.09;24.28;102579.28;143725;639;46009;-64
2022/05/19 09:29:04;;;;;;;4.95;0.85;;;;;;;24.16;24.17;102579.94;143724;579;47004;-62
2022/05/19 09:31:46;;;;;;;2.83;1.33;;;;;;;24.31;25.27;102584.03;143723;646;47010;-62
2022/05/19 09:34:12;;;;;;;4.20;1.10;;;;;;;24.39;23.52;102572.66;143722;588;47004;-62
2022/05/19 09:36:53;;;;;;;4.22;1.40;;;;;;;24.41;23.20;102576.00;143725;677;46006;-62
2022/05/19 09:39:20;;;;;;;11.18;5.62;;;;;;;24.41;24.20;102578.75;143723;733;47002;-62
2022/05/19 09:41:53;;;;;;;5.72;1.00;;;;;;;24.47;24.43;102576.94;143724;612;47011;-64
2022/05/19 09:44:32;;;;;;;13.15;2.05;;;;;;;24.41;24.01;102567.78;143721;655;47004;-62
2022/05/19 09:47:05;;;;;;;6.22;2.95;;;;;;;24.51;26.61;102570.69;143722;589;46006;-62
2022/05/19 09:49:34;;;;;;;3.78;2.62;;;;;;;24.65;23.05;102562.97;143722;722;47002;-62
2022/05/19 09:52:03;;;;;;;4.72;2.20;;;;;;;24.61;24.05;102571.97;143725;576;46025;-61
2022/05/19 09:54:32;;;;;;;2.17;1.45;;;;;;;24.66;23.31;102564.63;143721;681;47004;-64
2022/05/19 09:57:13;;;;;;;2.97;1.15;;;;;;;24.71;23.24;102563.91;143726;739;46006;-63
2022/05/19 09:59:51;;;;;;;4.45;1.37;;;;;;;24.72;23.06;102562.81;143728;649;46006;-68
2022/05/19 10:02:38;;;;;;;4.72;0.93;;;;;;;24.75;23.31;102550.50;143720;602;48009;-69
2022/05/19 10:05:47;;;;;;;4.75;1.70;;;;;;;24.81;22.58;102547.56;143721;589;47004;-76
2022/05/19 10:08:26;;;;;;;6.25;1.48;;;;;;;24.90;23.18;102547.16;143724;602;46006;-68
2022/05/19 10:11:07;;;;;;;6.75;2.08;;;;;;;24.87;22.17;102534.75;143724;657;47002;-67
2022/05/19 10:13:43;;;;;;;9.80;2.97;;;;;;;24.86;22.66;102537.75;143722;598;47002;-68
2022/05/19 10:16:54;;;;;;;10.73;4.47;;;;;;;24.82;23.92;102532.75;143723;594;47004;-67
2022/05/19 10:20:09;;;;;;;5.97;2.47;;;;;;;25.02;23.48;102536.06;143727;685;46006;-67
2022/05/19 10:23:10;;;;;;;19.20;17.15;;;;;;;25.05;22.96;102525.41;143724;582;47004;-68
2022/05/19 10:26:15;;;;;;;3.08;1.60;;;;;;;25.09;22.34;102523.81;143723;572;47011;-69
2022/05/19 10:32:22;;;;;;;50.28;34.80;;;;;;;25.09;22.42;102517.47;143727;577;47000;-71
2022/05/19 10:35:26;;;;;;;4.30;3.00;;;;;;;25.06;23.69;102518.81;143726;609;46026;-71
2022/05/19 10:38:03;;;;;;;5.05;2.72;;;;;;;25.15;24.69;102516.47;143724;574;47010;-70
2022/05/19 10:40:50;;;;;;;8.40;3.60;;;;;;;25.24;23.74;102508.59;143722;617;47004;-70
2022/05/19 10:43:49;;;;;;;15.13;9.13;;;;;;;25.27;23.04;102503.41;143725;630;47006;-70
2022/05/19 10:46:20;;;;;;;4.87;3.10;;;;;;;25.29;21.84;102505.94;143723;610;47002;-67
2022/05/19 10:49:24;;;;;;;3.85;1.27;;;;;;;25.39;23.46;102506.06;143723;613;47011;-68
2022/05/19 10:52:27;;;;;;;2.47;1.67;;;;;;;25.39;23.40;102506.06;143721;635;47004;-70
2022/05/19 10:55:22;;;;;;;2.95;1.20;;;;;;;25.39;22.98;102506.06;143722;584;47006;-68
2022/05/19 10:58:38;;;;;;;6.82;1.10;;;;;;;25.39;24.29;102499.72;143724;573;47004;-68
2022/05/19 11:01:38;;;;;;;1.20;0.82;;;;;;;25.46;23.10;102494.06;143725;571;47010;-68
2022/05/19 11:04:33;;;;;;;4.12;1.92;;;;;;;25.48;23.39;102491.91;143724;582;46008;-69
2022/05/19 11:07:19;;;;;;;;;;;;;;;25.42;23.41;102488.22;143729;984;47006;-68
2022/05/19 11:10:26;;;;;;;4.90;1.33;;;;;;;25.48;24.43;102492.72;143731;669;47000;-70
2022/05/19 11:13:43;;;;;;;3.45;2.58;;;;;;;25.48;23.01;102505.66;143723;616;47010;-69
2022/05/19 11:16:29;;;;;;;2.60;1.10;;;;;;;25.49;22.59;102499.88;143753;586;46004;-71
2022/05/19 11:19:05;;;;;;;6.32;2.00;;;;;;;25.49;23.31;102501.81;143756;584;45006;-68
2022/05/19 11:21:43;;;;;;;24.58;18.00;;;;;;;25.51;24.68;102499.59;143755;624;46000;-68
2022/05/19 11:27:32;;;;;;;14.70;9.07;;;;;;;25.44;23.12;102499.81;143755;583;46002;-67
2022/05/19 11:30:04;;;;;;;39.30;25.83;;;;;;;25.24;23.04;102500.34;143754;593;46924;-65
2022/05/19 11:32:36;;;;;;;83.75;60.78;;;;;;;25.23;22.33;102496.78;143758;599;45004;-66
2022/05/19 11:35:46;;;;;;;20.42;13.20;;;;;;;25.18;21.83;102495.88;143751;629;46010;-68
2022/05/19 11:38:36;;;;;;;6.45;4.05;;;;;;;25.09;24.55;102496.31;143750;599;46930;-67
2022/05/19 11:41:28;;;;;;;15.05;9.35;;;;;;;25.03;24.59;102488.25;143754;609;46006;-66
2022/05/19 11:44:05;;;;;;;14.48;10.95;;;;;;;25.00;24.60;102489.56;143753;670;46002;-65
2022/05/19 11:46:38;;;;;;;24.58;17.08;;;;;;;24.86;24.86;102491.03;143752;567;46922;-62
2022/05/19 11:55:16;;;;;;;16.95;12.82;;;;;;;24.75;25.29;102457.91;143755;592;45010;-69
2022/05/19 11:58:04;;;;;;;5.50;1.12;;;;;;;24.73;24.51;102484.81;143749;572;47922;-70
2022/05/19 12:00:55;;;;;;;15.50;2.58;;;;;;;24.56;24.57;102481.22;143751;589;46004;-70
2022/05/19 12:03:43;;;;;;;3.80;1.75;;;;;;;24.33;25.59;102461.91;143752;586;46006;-69
2022/05/19 12:06:26;;;;;;;5.70;3.55;;;;;;;24.33;25.28;102459.16;143756;614;46004;-71
2022/05/19 12:09:16;;;;;;;3.83;1.77;;;;;;;24.47;23.51;102462.38;143754;625;45922;-71
2022/05/19 12:12:04;;;;;;;13.32;8.15;;;;;;;24.52;23.87;102462.47;143752;577;46002;-67
2022/05/19 12:14:40;;;;;;;5.25;3.95;;;;;;;24.63;23.57;102455.22;143735;625;46006;-69
2022/05/19 12:17:33;;;;;;;3.17;1.98;;;;;;;24.67;23.94;102455.53;143725;594;47005;-69
2022/05/19 12:20:03;;;;;;;4.25;2.12;;;;;;;24.65;23.46;102453.06;143724;608;47010;-67